Augusta, MT

7:59 PM MDT on April 21, 2015 (GMT -0600)
GOSS RANCH - Goss Creek Rd. | | Change Station
CLOSE
Current Station
Personal Weather Station
Location: Augusta, MT
Elevation: 5190 ft
Nearby Weather Stations

Elev 5190 ft 47.39 °N, 112.64 °W | Updated 2 minutes ago

Overcast
Overcast
58.3 °F
Feels Like 58.3 °F
N
2.2
Wind Variable Wind from West

Today
High -- | Low -- °F
--% Chance of Precip.
Yesterday
High -- | Low -- °F
Precip. -- in
6:31 AM 8:28 PM
Waxing Crescent, 14% visible
Pressure 29.79 in
Visibility 10.0 miles
Clouds Clear
Dew Point 32 °F
Humidity 36%
Rainfall 0.00 in
Snow Depth Not available.
UV 0 out of 12
Pollen 10.00 out of 12
Air Quality Not available.
Flu Activity Regional
METAR KGTF 220153Z 09007KT 10SM CLR 16/00 A2979 RMK AO2 SLP088 T01610000

More Conditions Fewer Conditions

Pressure 29.79 in
Visibility 10.0 miles
Clouds Clear
Dew Point 32 °F
Humidity 36%
Rainfall 0.00 in
Snow Depth Not available.
UV 0 out of 12
Pollen 10.00 out of 12
Air Quality Not available.
Flu Activity Regional
METAR KGTF 220153Z 09007KT 10SM CLR 16/00 A2979 RMK AO2 SLP088 T01610000

More Conditions Fewer Conditions

10-Day Weather Forecast

Almanac

Astronomy

Apr. 21, 2015 Rise Set
Actual Time
Civil Twilight
Nautical Twilight
Astronomical Twilight
Moon
Length of Visible Light
Length of Day
Tomorrow will be .
, % of the Moon is Illuminated

Today's Extremes

State Highs State Lows

Community

WunderPhotos

Upload Photos

1,815,623 photos uploaded!

WunderBlogs® & News

Nearby

Air Quality

  Air Quality AQ Index Pollutant
Not available.

Snow Depth

Station Depth Elevation

Earthquake Activity

City Distance Mag. Time & Date
Minimum magnitude displayed is 2.5.

Coastal Water Temperatures

Place Temperature

Stations

Nearby Weather Stations

Station Location Temp. Windchill Dew Point Humidity Wind Precip. Elev Updated Type